createdAt,value
2022-11-21T00:00:23.372Z,2.40
2022-11-21T00:02:50.677Z,2.28
2022-11-21T00:05:19.300Z,1.92
2022-11-21T00:07:46.065Z,2.07
2022-11-21T00:10:13.005Z,2.07
2022-11-21T00:12:39.944Z,2.38
2022-11-21T00:15:07.629Z,2.17
2022-11-21T00:17:34.616Z,2.02
2022-11-21T00:20:01.328Z,1.74
2022-11-21T00:22:31.260Z,2.24
2022-11-21T00:24:58.818Z,2.38
2022-11-21T00:27:25.766Z,2.45
2022-11-21T00:29:52.770Z,2.42
2022-11-21T00:32:20.673Z,2.33
2022-11-21T00:34:47.394Z,2.54
2022-11-21T00:37:14.457Z,2.43
2022-11-21T00:39:42.686Z,2.56
2022-11-21T00:42:09.681Z,2.67
2022-11-21T00:44:36.454Z,2.71
2022-11-21T00:47:03.378Z,2.99
2022-11-21T00:49:30.175Z,3.09
2022-11-21T00:51:57.145Z,2.71
2022-11-21T00:54:24.038Z,2.68
2022-11-21T00:56:54.411Z,2.78
2022-11-21T00:59:21.181Z,2.76
2022-11-21T01:01:47.914Z,2.94
2022-11-21T01:04:15.141Z,3.11
2022-11-21T01:06:41.938Z,3.02
2022-11-21T01:09:09.044Z,3.00
2022-11-21T01:11:35.752Z,2.93
2022-11-21T01:14:05.171Z,3.14
2022-11-21T01:16:35.269Z,3.48
2022-11-21T01:19:03.445Z,3.35
2022-11-21T01:21:31.643Z,3.52
2022-11-21T01:23:59.801Z,3.54
2022-11-21T01:26:28.694Z,3.24
2022-11-21T01:28:57.284Z,3.07
2022-11-21T01:31:26.991Z,3.48
2022-11-21T01:33:57.350Z,3.59
2022-11-21T01:36:26.369Z,3.29
2022-11-21T01:38:56.209Z,3.13
2022-11-21T01:41:25.011Z,2.99
2022-11-21T01:43:59.153Z,3.20
2022-11-21T01:46:27.270Z,3.26
2022-11-21T01:48:59.769Z,3.07
2022-11-21T01:51:30.074Z,3.01
2022-11-21T01:54:02.371Z,2.63
2022-11-21T01:56:33.596Z,2.69
2022-11-21T01:59:02.780Z,2.79
2022-11-21T02:01:34.178Z,2.59
2022-11-21T02:04:03.431Z,2.73
2022-11-21T02:06:32.164Z,2.88
2022-11-21T02:09:01.571Z,2.91
2022-11-21T02:11:35.219Z,2.74
2022-11-21T02:14:02.256Z,2.46
2022-11-21T02:16:32.184Z,2.46
2022-11-21T02:18:58.987Z,2.71
2022-11-21T02:21:34.508Z,2.75
2022-11-21T02:24:09.839Z,2.70
2022-11-21T02:26:38.477Z,2.57
2022-11-21T02:29:06.388Z,2.57
2022-11-21T02:31:33.211Z,2.63
2022-11-21T02:34:00.043Z,2.76
2022-11-21T02:36:41.208Z,3.57
2022-11-21T02:39:13.601Z,3.57
2022-11-21T02:41:48.720Z,3.67
2022-11-21T02:44:25.562Z,3.67
2022-11-21T02:46:53.733Z,3.61
2022-11-21T02:49:29.629Z,3.39
2022-11-21T02:51:56.614Z,3.97
2022-11-21T02:54:23.460Z,4.06
2022-11-21T02:56:52.729Z,3.96
2022-11-21T02:59:19.500Z,3.68
2022-11-21T03:01:47.408Z,3.42
2022-11-21T03:04:15.582Z,3.27
2022-11-21T03:06:42.509Z,3.10
2022-11-21T03:09:09.280Z,3.22
2022-11-21T03:11:36.116Z,2.71
2022-11-21T03:14:04.240Z,2.34
2022-11-21T03:16:32.147Z,2.51
2022-11-21T03:18:58.900Z,2.05
2022-11-21T03:21:25.814Z,2.35
2022-11-21T03:23:52.573Z,2.28
2022-11-21T03:26:20.222Z,1.99
2022-11-21T03:28:46.981Z,1.93
2022-11-21T03:31:15.198Z,2.15
2022-11-21T03:33:43.262Z,1.97
2022-11-21T03:36:10.073Z,1.71
2022-11-21T03:38:36.981Z,1.55
2022-11-21T03:41:04.840Z,1.57
2022-11-21T03:43:32.013Z,2.04
2022-11-21T03:45:59.778Z,1.87
2022-11-21T03:48:32.366Z,1.72
2022-11-21T03:50:59.192Z,2.03
2022-11-21T03:53:27.983Z,2.04
2022-11-21T03:55:54.741Z,1.89
2022-11-21T03:58:21.649Z,2.14
2022-11-21T04:00:48.418Z,2.25
2022-11-21T04:03:15.289Z,2.33
2022-11-21T04:05:44.793Z,2.35
2022-11-21T04:08:12.487Z,2.45
2022-11-21T04:10:39.556Z,2.20
2022-11-21T04:13:06.341Z,2.15
2022-11-21T04:15:33.304Z,2.21
2022-11-21T04:18:00.179Z,2.16
2022-11-21T04:20:28.019Z,2.50
2022-11-21T04:22:56.182Z,2.70
2022-11-21T04:25:23.065Z,2.59
2022-11-21T04:27:49.949Z,2.56
2022-11-21T04:30:17.046Z,2.86
2022-11-21T04:32:43.788Z,2.48
2022-11-21T04:35:10.732Z,2.45
2022-11-21T04:37:39.618Z,2.08
2022-11-21T04:40:08.922Z,2.26
2022-11-21T04:42:35.656Z,2.16
2022-11-21T04:45:02.797Z,1.96
2022-11-21T04:47:30.806Z,2.13
2022-11-21T04:49:57.654Z,1.77
2022-11-21T04:52:24.526Z,1.69
2022-11-21T04:54:51.636Z,1.72
2022-11-21T04:57:20.140Z,1.90
2022-11-21T04:59:47.230Z,1.85
2022-11-21T05:02:14.259Z,2.12
2022-11-21T05:04:41.275Z,1.92
2022-11-21T05:07:08.189Z,2.18
2022-11-21T05:09:34.981Z,2.06
2022-11-21T05:12:04.177Z,2.09
2022-11-21T05:14:32.294Z,2.03
2022-11-21T05:16:59.189Z,2.21
2022-11-21T05:19:25.961Z,2.17
2022-11-21T05:21:52.762Z,1.85
2022-11-21T05:24:19.618Z,2.12
2022-11-21T05:26:48.815Z,1.80
2022-11-21T05:29:15.565Z,1.77
2022-11-21T05:31:45.909Z,1.67
2022-11-21T05:34:13.134Z,1.71
2022-11-21T05:36:39.974Z,1.79
2022-11-21T05:39:06.708Z,2.10
2022-11-21T05:41:33.755Z,2.09
2022-11-21T05:44:00.496Z,1.96
2022-11-21T05:46:27.347Z,1.98
2022-11-21T05:48:55.718Z,2.11
2022-11-21T05:51:22.555Z,1.97
2022-11-21T05:53:49.714Z,2.18
2022-11-21T05:56:21.244Z,2.36
2022-11-21T05:58:48.273Z,2.75
2022-11-21T06:01:17.097Z,3.22
2022-11-21T06:03:43.913Z,4.05
2022-11-21T06:06:13.877Z,3.42
2022-11-21T06:08:43.237Z,2.78
2022-11-21T06:11:12.037Z,2.39
2022-11-21T06:13:40.276Z,2.21
2022-11-21T06:16:09.474Z,1.84
2022-11-21T06:18:41.477Z,1.89
2022-11-21T06:21:12.404Z,2.29
2022-11-21T06:23:40.719Z,4.03
2022-11-21T06:26:14.593Z,3.76
2022-11-21T06:28:42.327Z,3.42
2022-11-21T06:31:13.896Z,5.07
2022-11-21T06:33:41.829Z,6.24
2022-11-21T06:36:11.398Z,6.61
2022-11-21T06:38:39.754Z,4.55
2022-11-21T06:41:08.401Z,3.16
2022-11-21T06:43:36.406Z,3.24
2022-11-21T06:46:06.065Z,2.88
2022-11-21T06:48:33.315Z,4.76
2022-11-21T06:51:04.517Z,5.28
2022-11-21T06:53:33.761Z,4.22
2022-11-21T06:56:05.088Z,4.26
2022-11-21T06:58:35.137Z,3.64
2022-11-21T07:01:04.991Z,2.92
2022-11-21T07:03:35.281Z,1.95
2022-11-21T07:06:04.767Z,1.58
2022-11-21T07:08:33.986Z,1.79
2022-11-21T07:11:24.027Z,1.82
2022-11-21T07:13:54.680Z,1.27
2022-11-21T07:16:24.533Z,1.04
2022-11-21T07:18:53.556Z,0.85
2022-11-21T07:21:21.460Z,1.70
2022-11-21T07:23:49.041Z,1.46
2022-11-21T07:26:20.375Z,1.38
2022-11-21T07:28:50.512Z,1.42
2022-11-21T07:31:17.695Z,1.38
2022-11-21T07:33:45.528Z,1.29
2022-11-21T07:36:15.319Z,0.98
2022-11-21T07:38:43.145Z,1.23
2022-11-21T07:41:11.029Z,1.15
2022-11-21T07:43:39.273Z,2.17
2022-11-21T07:46:06.238Z,2.09
2022-11-21T07:48:33.359Z,1.78
2022-11-21T07:51:06.668Z,1.34
2022-11-21T07:53:33.874Z,1.11
2022-11-21T07:56:01.838Z,1.05
2022-11-21T07:58:28.833Z,0.89
2022-11-21T08:00:58.565Z,1.10
2022-11-21T08:03:25.391Z,0.94
2022-11-21T08:05:54.552Z,1.25
2022-11-21T08:08:21.410Z,1.33
2022-11-21T08:10:50.676Z,1.28
2022-11-21T08:13:17.793Z,1.52
2022-11-21T08:15:45.858Z,1.53
2022-11-21T08:18:15.808Z,1.63
2022-11-21T08:20:42.923Z,1.44
2022-11-21T08:23:10.056Z,1.34
2022-11-21T08:25:39.583Z,1.53
2022-11-21T08:28:08.054Z,1.62
2022-11-21T08:30:36.332Z,1.70
2022-11-21T08:33:04.847Z,1.68
2022-11-21T08:35:36.645Z,1.42
2022-11-21T08:38:03.930Z,1.31
2022-11-21T08:40:34.257Z,1.81
2022-11-21T08:43:03.877Z,1.47
2022-11-21T08:45:34.073Z,1.26
2022-11-21T08:48:01.466Z,1.21
2022-11-21T08:50:28.573Z,1.15
2022-11-21T08:53:01.288Z,1.15
2022-11-21T08:55:28.092Z,0.99
2022-11-21T08:57:55.437Z,0.87
2022-11-21T09:00:23.058Z,1.21
2022-11-21T09:02:49.952Z,1.09
2022-11-21T09:05:16.947Z,1.34
2022-11-21T09:07:43.912Z,1.22
2022-11-21T09:10:12.441Z,1.08
2022-11-21T09:12:40.352Z,1.08
2022-11-21T09:15:10.082Z,0.93
2022-11-21T09:17:38.685Z,0.92
2022-11-21T09:20:06.395Z,1.02
2022-11-21T09:22:33.304Z,1.10
2022-11-21T09:25:00.065Z,1.24
2022-11-21T09:27:30.616Z,1.14
2022-11-21T09:29:58.576Z,1.06
2022-11-21T09:32:25.649Z,1.32
2022-11-21T09:34:53.613Z,1.08
2022-11-21T09:37:20.714Z,1.26
2022-11-21T09:39:51.609Z,1.26
2022-11-21T09:42:45.459Z,1.19
2022-11-21T09:45:15.839Z,1.24
2022-11-21T09:47:45.664Z,1.27
2022-11-21T09:50:29.451Z,1.05
2022-11-21T09:53:02.489Z,0.85
2022-11-21T09:55:41.259Z,0.97
2022-11-21T09:58:19.352Z,0.95
2022-11-21T10:00:46.594Z,0.91
2022-11-21T10:03:17.874Z,0.88
2022-11-21T10:05:51.969Z,1.02
2022-11-21T10:08:28.416Z,1.04
2022-11-21T10:10:58.341Z,1.05
2022-11-21T10:13:45.037Z,1.09
2022-11-21T10:16:23.272Z,0.96
2022-11-21T10:19:18.873Z,0.82
2022-11-21T10:22:09.051Z,0.68
2022-11-21T10:24:44.399Z,1.04
2022-11-21T10:27:15.736Z,1.08
2022-11-21T10:29:49.264Z,1.09
2022-11-21T10:32:22.403Z,1.27
2022-11-21T10:34:51.740Z,0.99
2022-11-21T10:37:31.241Z,1.08
2022-11-21T10:40:10.394Z,1.05
2022-11-21T10:42:45.021Z,1.19
2022-11-21T10:45:15.962Z,1.13
2022-11-21T10:47:45.995Z,1.22
2022-11-21T10:50:25.573Z,1.09
2022-11-21T10:53:03.123Z,0.85
2022-11-21T10:55:30.980Z,0.78
2022-11-21T10:57:57.711Z,0.79
2022-11-21T11:00:27.925Z,0.74
2022-11-21T11:03:07.576Z,0.92
2022-11-21T11:05:40.159Z,1.13
2022-11-21T11:08:08.916Z,1.01
2022-11-21T11:10:37.522Z,0.85
2022-11-21T11:13:38.763Z,0.79
2022-11-21T11:16:07.013Z,0.62
2022-11-21T11:18:38.683Z,0.58
2022-11-21T11:21:24.337Z,0.56
2022-11-21T11:23:53.132Z,0.56
2022-11-21T11:26:27.485Z,0.48
2022-11-21T11:29:09.801Z,0.42
2022-11-21T11:31:54.129Z,0.47
2022-11-21T11:34:21.725Z,0.50
2022-11-21T11:37:11.137Z,0.56
2022-11-21T11:39:40.934Z,0.45
2022-11-21T11:42:39.457Z,0.46
2022-11-21T11:45:20.059Z,0.54
2022-11-21T11:47:56.027Z,0.53
2022-11-21T11:50:26.801Z,0.47
2022-11-21T11:53:02.281Z,0.39
2022-11-21T11:55:36.425Z,0.39
2022-11-21T11:58:07.713Z,0.46
2022-11-21T12:00:42.387Z,0.48
2022-11-21T12:03:18.385Z,0.50
2022-11-21T12:05:56.484Z,0.40
2022-11-21T12:08:45.655Z,0.33
2022-11-21T12:11:25.380Z,0.31
2022-11-21T12:13:55.416Z,0.49
2022-11-21T12:16:26.513Z,0.40
2022-11-21T12:19:00.564Z,0.40
2022-11-21T12:21:29.340Z,0.48
2022-11-21T12:24:00.089Z,0.58
2022-11-21T12:26:36.019Z,0.61
2022-11-21T12:29:24.408Z,0.50
2022-11-21T12:32:08.254Z,0.48
2022-11-21T12:34:52.021Z,0.53
2022-11-21T12:37:28.328Z,0.50
2022-11-21T12:40:25.699Z,0.58
2022-11-21T12:43:04.283Z,0.62
2022-11-21T12:45:33.399Z,0.63
2022-11-21T12:48:16.937Z,0.54
2022-11-21T12:50:53.498Z,0.93
2022-11-21T12:53:28.301Z,0.68
2022-11-21T12:56:03.773Z,0.86
2022-11-21T12:58:35.217Z,0.70
2022-11-21T13:01:21.718Z,0.61
2022-11-21T13:03:55.151Z,0.70
2022-11-21T13:06:30.030Z,0.79
2022-11-21T13:09:00.472Z,0.56
2022-11-21T13:11:55.157Z,0.50
2022-11-21T13:14:27.450Z,0.50
2022-11-21T13:17:03.494Z,0.41
2022-11-21T13:19:42.088Z,0.52
2022-11-21T13:22:41.986Z,0.53
2022-11-21T13:25:11.936Z,0.49
2022-11-21T13:27:40.511Z,0.49
2022-11-21T13:30:25.365Z,0.50
2022-11-21T13:32:53.502Z,0.51
2022-11-21T13:36:00.547Z,0.55
2022-11-21T13:38:27.471Z,0.48
2022-11-21T13:40:57.204Z,0.59
2022-11-21T13:43:35.232Z,0.55
2022-11-21T13:46:02.620Z,0.49
2022-11-21T13:48:47.020Z,0.45
2022-11-21T13:51:42.710Z,1.25
2022-11-21T13:54:43.912Z,0.95
2022-11-21T13:57:26.040Z,0.85
2022-11-21T14:00:15.659Z,0.69
2022-11-21T14:03:09.910Z,0.64
2022-11-21T14:06:05.124Z,0.52
2022-11-21T14:08:32.287Z,0.59
2022-11-21T14:11:21.942Z,0.54
2022-11-21T14:13:50.290Z,0.47
2022-11-21T14:16:26.619Z,0.39
2022-11-21T14:18:54.206Z,0.38
2022-11-21T14:21:24.089Z,0.34
2022-11-21T14:23:53.268Z,0.32
2022-11-21T14:26:21.240Z,0.41
2022-11-21T14:28:48.518Z,0.37
2022-11-21T14:31:18.507Z,0.34
2022-11-21T14:33:47.375Z,0.41
2022-11-21T14:36:16.392Z,0.31
2022-11-21T14:39:02.247Z,0.35
2022-11-21T14:41:35.652Z,0.33
2022-11-21T14:44:05.008Z,0.32
2022-11-21T14:46:36.391Z,0.43
2022-11-21T14:49:18.743Z,0.32
2022-11-21T14:51:58.383Z,0.31
2022-11-21T14:54:31.679Z,0.26
2022-11-21T14:57:01.648Z,0.27
2022-11-21T14:59:32.633Z,0.33
2022-11-21T15:02:03.377Z,0.22
2022-11-21T15:04:36.860Z,0.21
2022-11-21T15:07:04.774Z,0.19
2022-11-21T15:12:30.934Z,0.20
2022-11-21T15:15:01.997Z,0.24
2022-11-21T15:17:31.697Z,0.27
2022-11-21T15:20:16.648Z,0.28
2022-11-21T15:22:43.482Z,0.29
2022-11-21T15:25:17.258Z,0.52
2022-11-21T15:27:51.832Z,0.65
2022-11-21T15:30:24.570Z,0.99
2022-11-21T15:33:10.381Z,0.78
2022-11-21T15:35:49.627Z,0.60
2022-11-21T15:38:32.414Z,0.64
2022-11-21T15:41:22.917Z,0.55
2022-11-21T15:43:51.387Z,0.43
2022-11-21T15:46:21.372Z,0.32
2022-11-21T15:48:52.029Z,0.26
2022-11-21T15:51:43.950Z,0.28
2022-11-21T15:54:12.542Z,0.39
2022-11-21T15:56:39.409Z,0.35
2022-11-21T15:59:07.494Z,0.23
2022-11-21T16:01:34.609Z,0.19
2022-11-21T16:04:05.148Z,0.15
2022-11-21T16:06:32.560Z,0.22
2022-11-21T16:09:01.230Z,0.26
2022-11-21T16:11:30.149Z,0.55
2022-11-21T16:13:58.940Z,0.68
2022-11-21T16:16:27.452Z,0.66
2022-11-21T16:18:55.564Z,0.57
2022-11-21T16:21:25.786Z,0.40
2022-11-21T16:23:53.105Z,0.40
2022-11-21T16:26:21.131Z,0.31
2022-11-21T16:28:47.987Z,0.62
2022-11-21T16:31:19.635Z,0.61
2022-11-21T16:33:47.026Z,0.82
2022-11-21T16:36:21.981Z,0.67
2022-11-21T16:38:52.049Z,1.16
2022-11-21T16:41:20.632Z,0.77
2022-11-21T16:43:49.797Z,0.50
2022-11-21T16:46:19.028Z,0.42
2022-11-21T16:48:47.125Z,0.60
2022-11-21T16:51:16.271Z,0.41
2022-11-21T16:53:43.790Z,0.36
2022-11-21T16:56:13.340Z,0.33
2022-11-21T16:58:41.550Z,0.39
2022-11-21T17:01:10.337Z,0.50
2022-11-21T17:03:37.457Z,0.37
2022-11-21T17:06:04.561Z,0.38
2022-11-21T17:08:31.415Z,0.44
2022-11-21T17:10:58.275Z,0.42
2022-11-21T17:13:26.557Z,0.38
2022-11-21T17:15:53.849Z,0.30
2022-11-21T17:18:21.015Z,0.22
2022-11-21T17:20:49.031Z,0.20
2022-11-21T17:23:16.467Z,0.15
2022-11-21T17:25:43.434Z,0.13
2022-11-21T17:28:10.434Z,0.15
2022-11-21T17:30:40.061Z,0.22
2022-11-21T17:33:08.191Z,0.21
2022-11-21T17:35:35.794Z,0.21
2022-11-21T17:38:02.831Z,0.20
2022-11-21T17:40:29.627Z,0.15
2022-11-21T17:42:56.546Z,0.18
2022-11-21T17:45:25.745Z,0.14
2022-11-21T17:47:55.138Z,0.18
2022-11-21T17:50:21.971Z,0.14
2022-11-21T17:52:49.001Z,0.22
2022-11-21T17:55:15.838Z,0.36
2022-11-21T17:57:42.783Z,0.66
2022-11-21T18:00:11.393Z,0.62
2022-11-21T18:02:38.428Z,4.54
2022-11-21T18:05:06.934Z,3.92
2022-11-21T18:07:34.199Z,2.73
2022-11-21T18:10:20.424Z,2.12
2022-11-21T18:12:48.057Z,1.51
2022-11-21T18:15:17.562Z,1.56
2022-11-21T18:17:45.462Z,3.74
2022-11-21T18:20:14.269Z,2.47
2022-11-21T18:22:41.020Z,1.46
2022-11-21T18:25:08.553Z,0.92
2022-11-21T18:27:35.530Z,0.65
2022-11-21T18:30:02.530Z,0.78
2022-11-21T18:32:29.311Z,0.83
2022-11-21T18:34:56.343Z,1.08
2022-11-21T18:37:24.501Z,0.86
2022-11-21T18:39:51.624Z,0.70
2022-11-21T18:42:18.614Z,0.48
2022-11-21T18:44:47.135Z,0.49
2022-11-21T18:47:20.461Z,0.32
2022-11-21T18:49:48.360Z,0.26
2022-11-21T18:52:17.205Z,0.23
2022-11-21T18:54:45.506Z,0.26
2022-11-21T18:57:14.945Z,0.35
2022-11-21T18:59:42.364Z,0.38
2022-11-21T19:02:09.832Z,0.39
2022-11-21T19:04:37.897Z,0.43
2022-11-21T19:07:04.693Z,0.37
2022-11-21T19:09:34.272Z,0.47
2022-11-21T19:12:03.115Z,0.42
2022-11-21T19:14:30.152Z,0.32
2022-11-21T19:16:58.344Z,0.39
2022-11-21T19:19:40.286Z,0.31
2022-11-21T19:22:07.201Z,0.26
2022-11-21T19:24:34.485Z,0.37
2022-11-21T19:27:02.801Z,0.34
2022-11-21T19:29:29.892Z,0.27
2022-11-21T19:31:57.065Z,0.24
2022-11-21T19:34:26.174Z,0.23
2022-11-21T19:36:53.536Z,0.17
2022-11-21T19:39:20.562Z,0.18
2022-11-21T19:41:50.722Z,0.14
2022-11-21T19:44:18.874Z,0.17
2022-11-21T19:46:45.599Z,0.18
2022-11-21T19:49:12.583Z,0.18
2022-11-21T19:51:41.666Z,0.19
2022-11-21T19:54:11.554Z,0.17
2022-11-21T19:56:40.150Z,0.20
2022-11-21T19:59:06.916Z,0.17
2022-11-21T20:01:35.697Z,0.15
2022-11-21T20:04:04.761Z,0.17
2022-11-21T20:06:33.471Z,0.18
2022-11-21T20:09:01.788Z,0.19
2022-11-21T20:11:30.854Z,0.15
2022-11-21T20:13:58.451Z,0.16
2022-11-21T20:16:27.706Z,0.20
2022-11-21T20:18:58.831Z,0.29
2022-11-21T20:21:27.386Z,0.32
2022-11-21T20:23:54.347Z,0.32
2022-11-21T20:26:22.405Z,0.26
2022-11-21T20:28:49.769Z,0.23
2022-11-21T20:31:18.481Z,0.22
2022-11-21T20:33:48.050Z,0.21
2022-11-21T20:36:17.964Z,0.21
2022-11-21T20:38:49.510Z,0.20
2022-11-21T20:41:16.255Z,0.20
2022-11-21T20:44:26.730Z,0.29
2022-11-21T20:46:30.056Z,0.95
2022-11-21T20:48:59.215Z,1.11
2022-11-21T20:54:17.077Z,2.40
2022-11-21T20:56:44.648Z,1.62
2022-11-21T20:59:11.873Z,2.95
2022-11-21T21:01:38.894Z,3.52
2022-11-21T21:04:10.869Z,2.50
2022-11-21T21:06:39.373Z,2.01
2022-11-21T21:09:06.830Z,1.24
2022-11-21T21:14:21.996Z,0.45
2022-11-21T21:16:49.450Z,0.71
2022-11-21T21:19:17.221Z,0.48
2022-11-21T21:21:48.870Z,0.37
2022-11-21T21:24:16.044Z,0.35
2022-11-21T21:26:46.194Z,0.32
2022-11-21T21:29:15.889Z,0.53
2022-11-21T21:31:49.636Z,0.47
2022-11-21T21:34:18.042Z,0.39
2022-11-21T21:36:44.999Z,0.51
2022-11-21T21:39:13.534Z,0.55
2022-11-21T21:41:40.706Z,0.52
2022-11-21T21:44:07.599Z,0.42
2022-11-21T21:46:34.586Z,0.64
2022-11-21T21:49:01.569Z,0.57
2022-11-21T21:51:30.401Z,0.41
2022-11-21T21:53:59.067Z,0.36
2022-11-21T21:56:28.716Z,0.29
2022-11-21T21:58:57.292Z,0.25
2022-11-21T22:01:26.257Z,0.37
2022-11-21T22:03:54.233Z,0.69
2022-11-21T22:06:21.197Z,0.51
2022-11-21T22:08:49.474Z,0.36
2022-11-21T22:11:18.262Z,0.29
2022-11-21T22:13:48.698Z,0.43
2022-11-21T22:16:15.794Z,1.43
2022-11-21T22:18:42.949Z,1.12
2022-11-21T22:21:13.658Z,1.08
2022-11-21T22:24:03.030Z,1.14
2022-11-21T22:26:32.356Z,0.81
2022-11-21T22:29:00.614Z,0.75
2022-11-21T22:31:30.355Z,0.49
2022-11-21T22:33:57.663Z,0.41
2022-11-21T22:36:24.392Z,0.40
2022-11-21T22:38:54.308Z,0.35
2022-11-21T22:41:22.793Z,0.42
2022-11-21T22:43:51.191Z,0.37
2022-11-21T22:46:19.900Z,0.50
2022-11-21T22:48:46.839Z,0.53
2022-11-21T22:51:14.367Z,0.42
2022-11-21T22:53:42.789Z,0.41
2022-11-21T22:56:10.679Z,0.41
2022-11-21T22:58:40.092Z,0.46
2022-11-21T23:01:13.858Z,0.39
2022-11-21T23:03:42.688Z,0.35
2022-11-21T23:06:11.360Z,0.29
2022-11-21T23:08:38.668Z,0.63
2022-11-21T23:11:08.995Z,0.48
2022-11-21T23:13:37.166Z,0.44
2022-11-21T23:16:05.462Z,0.72
2022-11-21T23:18:32.793Z,0.69
2022-11-21T23:21:01.507Z,0.50
2022-11-21T23:23:29.134Z,0.41
2022-11-21T23:25:55.988Z,0.33
2022-11-21T23:28:24.598Z,0.41
2022-11-21T23:30:51.821Z,0.43
2022-11-21T23:33:18.919Z,0.42
2022-11-21T23:35:46.542Z,0.45
2022-11-21T23:38:16.611Z,0.41
2022-11-21T23:40:46.345Z,0.56
2022-11-21T23:43:13.562Z,0.41
2022-11-21T23:45:40.595Z,0.36
2022-11-21T23:48:07.703Z,0.40
2022-11-21T23:50:34.543Z,0.51
2022-11-21T23:53:01.789Z,0.45
2022-11-21T23:55:30.275Z,0.44
2022-11-21T23:57:57.245Z,0.42
